createdAt,value
2018-09-12T00:01:41.137Z,13.50
2018-09-12T00:05:45.447Z,13.50
2018-09-12T00:09:49.775Z,13.40
2018-09-12T00:13:54.166Z,13.50
2018-09-12T00:17:59.655Z,13.50
2018-09-12T00:22:03.991Z,13.50
2018-09-12T00:26:08.319Z,13.40
2018-09-12T00:30:12.806Z,13.30
2018-09-12T00:34:17.278Z,13.30
2018-09-12T00:38:21.480Z,13.30
2018-09-12T00:42:25.950Z,13.30
2018-09-12T00:46:30.278Z,13.30
2018-09-12T00:50:34.686Z,13.30
2018-09-12T00:54:38.981Z,13.20
2018-09-12T00:58:43.312Z,13.30
2018-09-12T01:02:47.517Z,13.20
2018-09-12T01:06:51.809Z,13.10
2018-09-12T01:10:56.109Z,13.00
2018-09-12T01:15:00.426Z,13.00
2018-09-12T01:19:05.013Z,13.00
2018-09-12T01:23:09.397Z,13.00
2018-09-12T01:27:13.613Z,12.90
2018-09-12T01:31:17.850Z,12.90
2018-09-12T01:35:22.565Z,12.80
2018-09-12T01:39:26.934Z,12.80
2018-09-12T01:43:31.222Z,12.70
2018-09-12T01:47:35.428Z,12.70
2018-09-12T01:51:39.777Z,12.70
2018-09-12T01:55:44.097Z,12.70
2018-09-12T01:59:48.430Z,12.70
2018-09-12T02:03:52.844Z,12.70
2018-09-12T02:07:57.157Z,12.60
2018-09-12T02:12:01.579Z,12.60
2018-09-12T02:16:05.780Z,12.60
2018-09-12T02:20:10.145Z,12.50
2018-09-12T02:24:14.456Z,12.50
2018-09-12T02:28:18.629Z,12.60
2018-09-12T02:32:23.356Z,12.50
2018-09-12T02:36:28.882Z,12.60
2018-09-12T02:40:33.485Z,12.50
2018-09-12T02:44:37.668Z,12.40
2018-09-12T02:48:42.056Z,12.50
2018-09-12T02:52:46.747Z,12.40
2018-09-12T02:56:51.321Z,12.30
2018-09-12T03:00:55.955Z,12.20
2018-09-12T03:05:00.483Z,12.20
2018-09-12T03:09:06.938Z,12.20
2018-09-12T03:13:11.535Z,12.10
2018-09-12T03:17:16.216Z,12.10
2018-09-12T03:21:20.657Z,12.20
2018-09-12T03:25:25.345Z,12.30
2018-09-12T03:29:29.921Z,12.20
2018-09-12T03:33:34.511Z,12.00
2018-09-12T03:37:39.055Z,11.90
2018-09-12T03:41:43.544Z,11.80
2018-09-12T03:45:48.461Z,11.80
2018-09-12T03:49:52.898Z,11.80
2018-09-12T03:53:57.400Z,11.80
2018-09-12T03:58:02.259Z,11.80
2018-09-12T04:02:06.728Z,11.90
2018-09-12T04:06:11.312Z,11.90
2018-09-12T04:10:15.886Z,11.70
2018-09-12T04:14:20.528Z,11.70
2018-09-12T04:18:25.154Z,11.60
2018-09-12T04:22:29.911Z,11.60
2018-09-12T04:26:35.014Z,11.50
2018-09-12T04:30:39.704Z,11.60
2018-09-12T04:34:44.387Z,11.60
2018-09-12T04:38:48.946Z,11.60
2018-09-12T04:42:53.656Z,11.50
2018-09-12T04:46:57.873Z,11.60
2018-09-12T04:51:02.227Z,11.50
2018-09-12T04:55:07.104Z,11.60
2018-09-12T04:59:11.731Z,11.60
2018-09-12T05:03:16.447Z,11.60
2018-09-12T05:07:22.128Z,11.60
2018-09-12T05:11:26.617Z,11.60
2018-09-12T05:15:31.184Z,11.70
2018-09-12T05:19:35.430Z,11.80
2018-09-12T05:23:39.632Z,11.90
2018-09-12T05:27:43.957Z,12.00
2018-09-12T05:31:48.461Z,12.10
2018-09-12T05:35:52.676Z,12.10
2018-09-12T05:39:56.943Z,12.30
2018-09-12T05:44:01.156Z,12.40
2018-09-12T05:48:05.643Z,12.50
2018-09-12T05:52:09.906Z,12.60
2018-09-12T05:56:14.280Z,12.80
2018-09-12T06:00:21.257Z,12.90
2018-09-12T06:04:25.939Z,13.00
2018-09-12T06:14:53.956Z,13.30
2018-09-12T06:18:58.650Z,13.60
2018-09-12T06:23:03.153Z,13.80
2018-09-12T06:27:07.394Z,14.00
2018-09-12T06:31:12.811Z,14.20
2018-09-12T06:35:17.088Z,14.40
2018-09-12T06:39:21.347Z,14.70
2018-09-12T06:43:25.660Z,14.90
2018-09-12T06:47:29.975Z,15.10
2018-09-12T06:51:34.340Z,15.40
2018-09-12T06:55:40.305Z,15.60
2018-09-12T06:59:45.050Z,15.90
2018-09-12T07:03:49.719Z,16.10
2018-09-12T07:07:55.106Z,16.30
2018-09-12T07:11:59.489Z,16.60
2018-09-12T07:16:03.769Z,16.90
2018-09-12T07:20:08.233Z,17.20
2018-09-12T07:24:12.514Z,17.50
2018-09-12T07:28:16.763Z,17.90
2018-09-12T07:32:20.977Z,18.10
2018-09-12T07:36:25.293Z,18.30
2018-09-12T07:40:29.518Z,18.50
2018-09-12T07:44:33.807Z,19.10
2018-09-12T07:48:38.113Z,19.50
2018-09-12T07:52:42.415Z,19.90
2018-09-12T07:56:46.658Z,20.20
2018-09-12T08:00:51.062Z,20.30
2018-09-12T08:04:55.293Z,20.40
2018-09-12T08:09:00.373Z,20.60
2018-09-12T08:13:05.249Z,20.90
2018-09-12T08:17:09.770Z,21.20
2018-09-12T08:21:14.179Z,21.40
2018-09-12T08:25:18.549Z,21.80
2018-09-12T08:29:22.835Z,22.20
2018-09-12T08:33:27.260Z,22.70
2018-09-12T08:37:31.694Z,23.10
2018-09-12T08:41:36.016Z,23.50
2018-09-12T08:45:40.669Z,23.70
2018-09-12T08:49:45.231Z,24.40
2018-09-12T08:53:49.543Z,25.30
2018-09-12T08:57:54.330Z,26.30
2018-09-12T09:01:58.577Z,27.50
2018-09-12T09:06:02.967Z,28.50
2018-09-12T09:10:07.223Z,28.00
2018-09-12T09:14:11.716Z,28.00
2018-09-12T09:18:16.428Z,28.00
2018-09-12T09:22:20.738Z,27.80
2018-09-12T09:26:24.945Z,28.30
2018-09-12T09:30:32.033Z,27.60
2018-09-12T09:34:36.268Z,27.60
2018-09-12T09:38:40.488Z,27.70
2018-09-12T09:42:44.792Z,28.00
2018-09-12T09:46:49.016Z,28.60
2018-09-12T09:50:53.270Z,28.30
2018-09-12T09:54:57.598Z,28.40
2018-09-12T09:59:01.855Z,28.30
2018-09-12T10:03:11.350Z,28.90
2018-09-12T10:07:22.614Z,29.30
2018-09-12T10:11:27.692Z,28.60
2018-09-12T10:15:32.674Z,28.50
2018-09-12T10:19:37.145Z,28.40
2018-09-12T10:23:41.760Z,28.20
2018-09-12T10:27:46.517Z,28.40
2018-09-12T10:31:50.837Z,29.40
2018-09-12T10:35:55.253Z,30.40
2018-09-12T10:39:59.456Z,31.20
2018-09-12T10:44:03.938Z,31.90
2018-09-12T10:48:08.680Z,31.70
2018-09-12T10:52:13.862Z,32.10
2018-09-12T10:56:18.620Z,33.40
2018-09-12T11:00:23.101Z,33.90
2018-09-12T11:04:28.270Z,34.10
2018-09-12T11:08:32.513Z,34.50
2018-09-12T11:12:36.779Z,33.80
2018-09-12T11:16:41.784Z,34.00
2018-09-12T11:20:46.324Z,33.90
2018-09-12T11:24:50.726Z,34.20
2018-09-12T11:28:55.216Z,34.50
2018-09-12T11:32:59.792Z,34.50
2018-09-12T11:37:04.297Z,35.90
2018-09-12T11:41:08.819Z,35.30
2018-09-12T11:45:13.143Z,36.40
2018-09-12T11:49:17.434Z,37.20
2018-09-12T11:53:21.736Z,37.20
2018-09-12T11:57:26.104Z,37.70
2018-09-12T12:01:30.696Z,37.60
2018-09-12T12:05:35.304Z,37.60
2018-09-12T12:09:39.665Z,37.90
2018-09-12T12:13:43.962Z,39.40
2018-09-12T12:17:49.784Z,38.80
2018-09-12T12:21:55.505Z,38.10
2018-09-12T12:26:00.813Z,37.20
2018-09-12T12:30:05.565Z,37.30
2018-09-12T12:34:09.996Z,35.90
2018-09-12T12:38:14.257Z,37.10
2018-09-12T12:42:18.801Z,37.10
2018-09-12T12:46:25.624Z,38.80
2018-09-12T12:50:32.575Z,38.70
2018-09-12T12:54:37.190Z,38.40
2018-09-12T12:58:41.522Z,39.60
2018-09-12T13:02:45.749Z,40.40
2018-09-12T13:06:50.439Z,39.60
2018-09-12T13:10:54.782Z,38.70
2018-09-12T13:14:59.222Z,37.20
2018-09-12T13:19:03.524Z,38.00
2018-09-12T13:23:07.869Z,38.80
2018-09-12T13:27:12.579Z,39.20
2018-09-12T13:31:17.190Z,38.80
2018-09-12T13:35:21.685Z,38.30
2018-09-12T13:39:25.957Z,38.00
2018-09-12T13:43:30.271Z,38.60
2018-09-12T13:47:34.502Z,38.60
2018-09-12T13:51:38.921Z,38.10
2018-09-12T13:55:43.188Z,38.50
2018-09-12T13:59:47.409Z,38.50
2018-09-12T14:03:51.684Z,37.50
2018-09-12T14:07:55.896Z,37.40
2018-09-12T14:12:00.878Z,36.20
2018-09-12T14:16:05.168Z,35.10
2018-09-12T14:20:09.453Z,35.20
2018-09-12T14:24:13.889Z,35.30
2018-09-12T14:28:18.143Z,35.60
2018-09-12T14:32:22.531Z,35.30
2018-09-12T14:36:26.705Z,35.60
2018-09-12T14:40:30.917Z,34.80
2018-09-12T14:44:35.192Z,34.20
2018-09-12T14:48:39.488Z,33.80
2018-09-12T14:52:43.697Z,32.80
2018-09-12T14:56:47.919Z,31.50
2018-09-12T15:00:54.173Z,30.80
2018-09-12T15:04:58.773Z,30.30
2018-09-12T15:09:02.950Z,30.20
2018-09-12T15:13:07.185Z,29.80
2018-09-12T15:17:11.412Z,29.30
2018-09-12T15:21:15.920Z,28.40
2018-09-12T15:25:20.193Z,27.80
2018-09-12T15:29:24.394Z,26.60
2018-09-12T15:33:29.098Z,26.40
2018-09-12T15:37:33.325Z,26.30
2018-09-12T15:41:37.601Z,26.00
2018-09-12T15:45:41.831Z,25.70
2018-09-12T15:49:46.040Z,25.40
2018-09-12T15:53:50.315Z,25.10
2018-09-12T15:57:54.588Z,24.90
2018-09-12T16:01:58.848Z,24.60
2018-09-12T16:06:03.068Z,24.50
2018-09-12T16:10:07.353Z,24.30
2018-09-12T16:14:11.619Z,23.80
2018-09-12T16:18:15.806Z,23.70
2018-09-12T16:22:20.059Z,23.40
2018-09-12T16:26:24.435Z,23.10
2018-09-12T16:30:28.629Z,23.00
2018-09-12T16:34:33.060Z,22.80
2018-09-12T16:38:37.913Z,22.60
2018-09-12T16:42:42.514Z,22.30
2018-09-12T16:46:49.568Z,22.10
2018-09-12T16:50:54.149Z,22.00
2018-09-12T16:54:58.541Z,21.80
2018-09-12T16:59:03.052Z,21.50
2018-09-12T17:03:07.612Z,21.40
2018-09-12T17:07:12.303Z,21.10
2018-09-12T17:11:17.073Z,20.90
2018-09-12T17:15:21.299Z,20.70
2018-09-12T17:19:25.598Z,20.50
2018-09-12T17:23:30.429Z,20.40
2018-09-12T17:27:34.965Z,20.30
2018-09-12T17:31:39.439Z,20.20
2018-09-12T17:35:43.757Z,20.00
2018-09-12T17:39:48.250Z,19.80
2018-09-12T17:43:52.628Z,19.70
2018-09-12T17:47:58.109Z,19.50
2018-09-12T17:52:03.316Z,19.40
2018-09-12T17:56:07.733Z,19.30
2018-09-12T18:00:11.988Z,19.20
2018-09-12T18:04:16.292Z,19.10
2018-09-12T18:08:20.472Z,19.00
2018-09-12T18:12:25.037Z,19.00
2018-09-12T18:16:29.315Z,18.80
2018-09-12T18:20:33.764Z,18.80
2018-09-12T18:24:38.062Z,18.70
2018-09-12T18:28:43.698Z,18.60
2018-09-12T18:32:48.204Z,18.50
2018-09-12T18:36:52.445Z,18.40
2018-09-12T18:40:56.978Z,18.30
2018-09-12T18:45:01.417Z,18.20
2018-09-12T18:49:06.041Z,18.10
2018-09-12T18:53:10.428Z,18.00
2018-09-12T18:57:14.770Z,18.00
2018-09-12T19:01:19.104Z,17.90
2018-09-12T19:05:23.320Z,17.90
2018-09-12T19:09:28.102Z,17.70
2018-09-12T19:13:32.762Z,17.70
2018-09-12T19:17:37.397Z,17.60
2018-09-12T19:21:41.982Z,17.50
2018-09-12T19:25:46.209Z,17.50
2018-09-12T19:29:50.459Z,17.40
2018-09-12T19:33:55.091Z,17.30
2018-09-12T19:37:59.626Z,17.30
2018-09-12T19:42:04.029Z,17.30
2018-09-12T19:46:08.282Z,17.20
2018-09-12T19:50:12.589Z,17.10
2018-09-12T19:54:16.902Z,17.10
2018-09-12T19:58:21.826Z,17.00
2018-09-12T20:02:30.070Z,17.00
2018-09-12T20:06:34.444Z,16.90
2018-09-12T20:10:39.809Z,16.80
2018-09-12T20:14:44.397Z,16.80
2018-09-12T20:18:49.161Z,16.70
2018-09-12T20:22:53.850Z,16.70
2018-09-12T20:26:58.555Z,16.60
2018-09-12T20:31:03.009Z,16.60
2018-09-12T20:35:07.505Z,16.80
2018-09-12T20:39:12.986Z,16.60
2018-09-12T20:43:17.533Z,16.50
2018-09-12T20:47:21.809Z,16.50
2018-09-12T20:51:26.149Z,16.30
2018-09-12T20:55:30.369Z,16.30
2018-09-12T20:59:34.708Z,16.20
2018-09-12T21:03:38.929Z,16.20
2018-09-12T21:07:43.149Z,16.20
2018-09-12T21:11:47.370Z,16.10
2018-09-12T21:15:51.798Z,16.10
2018-09-12T21:19:55.980Z,16.10
2018-09-12T21:24:00.397Z,16.10
2018-09-12T21:28:04.777Z,16.00
2018-09-12T21:32:09.168Z,16.00
2018-09-12T21:36:13.472Z,15.90
2018-09-12T21:40:17.926Z,15.90
2018-09-12T21:44:22.151Z,15.90
2018-09-12T21:48:26.604Z,15.80
2018-09-12T21:52:30.792Z,15.80
2018-09-12T21:56:35.011Z,15.70
2018-09-12T22:00:39.573Z,15.70
2018-09-12T22:04:43.751Z,15.70
2018-09-12T22:08:48.057Z,15.60
2018-09-12T22:12:52.367Z,15.60
2018-09-12T22:16:56.618Z,15.60
2018-09-12T22:21:00.805Z,15.60
2018-09-12T22:25:05.139Z,15.50
2018-09-12T22:29:09.449Z,15.50
2018-09-12T22:33:13.725Z,15.50
2018-09-12T22:37:17.940Z,15.40
2018-09-12T22:41:22.208Z,15.40
2018-09-12T22:45:26.385Z,15.30
2018-09-12T22:49:30.665Z,15.20
2018-09-12T22:53:34.847Z,15.30
2018-09-12T22:57:39.113Z,15.30
2018-09-12T23:01:43.328Z,15.20
2018-09-12T23:05:47.576Z,15.10
2018-09-12T23:09:52.111Z,15.00
2018-09-12T23:13:56.292Z,15.00
2018-09-12T23:18:00.843Z,15.10
2018-09-12T23:22:05.168Z,15.20
2018-09-12T23:26:09.563Z,15.10
2018-09-12T23:30:13.896Z,15.00
2018-09-12T23:34:18.172Z,15.00
2018-09-12T23:38:22.364Z,14.90
2018-09-12T23:42:26.727Z,15.00
2018-09-12T23:46:31.005Z,15.00
2018-09-12T23:50:35.355Z,15.00
2018-09-12T23:54:39.529Z,14.90
2018-09-12T23:58:43.829Z,14.90
